Time,TemperatureF,DewpointF,PressureIn,WindDirection,WindDirectionDegrees,WindSpeedMPH,WindSpeedGustMPH,Humidity,HourlyPrecipIn,Conditions,Clouds,dailyrainin,SolarRadiationWatts/m^2,SoftwareType,DateUTC
2013-05-06 00:14:00,63.7,49.0,30.11,WNW,291,0.0,-999.0,59,-99.99,,,0.00,0,weatherlink.com 1.10,2013-05-06 07:14:00,
2013-05-06 00:29:00,63.8,49.0,30.11,WNW,298,0.0,-999.0,58,-99.99,,,0.00,0,weatherlink.com 1.10,2013-05-06 07:29:00,
2013-05-06 00:44:00,64.1,48.0,30.11,NW,311,0.0,-999.0,57,-99.99,,,0.00,0,weatherlink.com 1.10,2013-05-06 07:44:00,
2013-05-06 00:59:00,64.2,48.0,30.11,NW,325,6.0,-999.0,55,-99.99,,,0.00,0,weatherlink.com 1.10,2013-05-06 07:59:00,
2013-05-06 01:14:00,64.5,47.0,30.11,North,360,9.0,-999.0,53,-99.99,,,0.00,0,weatherlink.com 1.10,2013-05-06 08:14:00,
2013-05-06 01:29:00,64.4,47.0,30.11,NNW,330,8.0,-999.0,54,-99.99,,,0.00,0,weatherlink.com 1.10,2013-05-06 08:29:00,
2013-05-06 01:44:00,64.5,47.0,30.11,NNW,330,10.0,-999.0,54,-99.99,,,0.00,0,weatherlink.com 1.10,2013-05-06 08:44:00,
2013-05-06 01:59:00,64.2,48.0,30.10,NW,319,6.0,-999.0,55,-99.99,,,0.00,0,weatherlink.com 1.10,2013-05-06 08:59:00,
2013-05-06 02:14:00,63.9,48.0,30.11,NNW,337,6.0,-999.0,56,-99.99,,,0.00,0,weatherlink.com 1.10,2013-05-06 09:14:00,
2013-05-06 02:29:00,63.7,48.0,30.11,NW,311,5.0,-999.0,56,-99.99,,,0.00,0,weatherlink.com 1.10,2013-05-06 09:29:00,
2013-05-06 02:44:00,63.3,47.0,30.11,NW,312,4.0,-999.0,56,-99.99,,,0.00,0,weatherlink.com 1.10,2013-05-06 09:44:00,
2013-05-06 02:59:00,63.0,47.0,30.12,WNW,302,0.0,-999.0,57,-99.99,,,0.00,0,weatherlink.com 1.10,2013-05-06 09:59:00,
2013-05-06 03:14:00,62.6,47.0,30.12,WNW,302,0.0,-999.0,58,-99.99,,,0.00,0,weatherlink.com 1.10,2013-05-06 10:14:00,
2013-05-06 03:29:00,62.6,47.0,30.12,WNW,302,0.0,-999.0,58,-99.99,,,0.00,0,weatherlink.com 1.10,2013-05-06 10:29:00,
2013-05-06 03:44:00,62.5,47.0,30.12,WNW,302,0.0,-999.0,57,-99.99,,,0.00,0,weatherlink.com 1.10,2013-05-06 10:44:00,
2013-05-06 03:59:00,62.3,47.0,30.12,WNW,302,0.0,-999.0,58,-99.99,,,0.00,0,weatherlink.com 1.10,2013-05-06 10:59:00,
2013-05-06 04:14:00,61.9,47.0,30.13,WNW,302,0.0,-999.0,59,-99.99,,,0.00,0,weatherlink.com 1.10,2013-05-06 11:14:00,
2013-05-06 04:29:00,61.5,47.0,30.13,WNW,302,0.0,-999.0,59,-99.99,,,0.00,0,weatherlink.com 1.10,2013-05-06 11:29:00,
2013-05-06 04:44:00,62.4,47.0,30.13,North,5,6.0,-999.0,58,-99.99,,,0.00,0,weatherlink.com 1.10,2013-05-06 11:44:00,
2013-05-06 04:59:00,62.9,47.0,30.14,NNW,340,0.0,-999.0,57,-99.99,,,0.00,0,weatherlink.com 1.10,2013-05-06 11:59:00,
2013-05-06 05:14:00,63.0,47.0,30.14,NNW,339,0.0,-999.0,57,-99.99,,,0.00,0,weatherlink.com 1.10,2013-05-06 12:14:00,
2013-05-06 05:29:00,62.5,48.0,30.15,NNW,339,0.0,-999.0,59,-99.99,,,0.00,0,weatherlink.com 1.10,2013-05-06 12:29:00,
2013-05-06 05:44:00,62.1,48.0,30.15,NNW,339,0.0,-999.0,60,-99.99,,,0.00,0,weatherlink.com 1.10,2013-05-06 12:44:00,
2013-05-06 05:59:00,61.5,48.0,30.15,NNW,339,0.0,-999.0,62,-99.99,,,0.00,7,weatherlink.com 1.10,2013-05-06 12:59:00,
2013-05-06 06:14:00,61.8,48.0,30.16,NNW,339,0.0,-999.0,61,-99.99,,,0.00,14,weatherlink.com 1.10,2013-05-06 13:14:00,
2013-05-06 06:29:00,62.1,49.0,30.16,NNW,339,0.0,-999.0,62,-99.99,,,0.00,76,weatherlink.com 1.10,2013-05-06 13:29:00,
2013-05-06 06:44:00,63.0,50.0,30.17,NNW,339,0.0,-999.0,62,-99.99,,,0.00,130,weatherlink.com 1.10,2013-05-06 13:44:00,
2013-05-06 06:59:00,64.3,49.0,30.18,NNW,338,0.0,-999.0,59,-99.99,,,0.00,72,weatherlink.com 1.10,2013-05-06 13:59:00,
2013-05-06 07:14:00,65.4,50.0,30.17,NNW,339,0.0,-999.0,57,-99.99,,,0.00,250,weatherlink.com 1.10,2013-05-06 14:14:00,
2013-05-06 07:30:00,66.6,50.0,30.18,NNW,339,0.0,-999.0,55,-99.99,,,0.00,181,weatherlink.com 1.10,2013-05-06 14:30:00,
2013-05-06 07:45:00,67.5,50.0,30.18,NNW,346,6.0,-999.0,54,-99.99,,,0.00,413,weatherlink.com 1.10,2013-05-06 14:45:00,
2013-05-06 08:00:00,68.8,50.0,30.19,ENE,72,0.0,-999.0,51,-99.99,,,0.00,494,weatherlink.com 1.10,2013-05-06 15:00:00,
2013-05-06 08:15:00,69.7,50.0,30.19,North,355,0.0,-999.0,50,-99.99,,,0.00,499,weatherlink.com 1.10,2013-05-06 15:15:00,
2013-05-06 08:30:00,70.0,50.0,30.20,NNW,348,0.0,-999.0,49,-99.99,,,0.00,557,weatherlink.com 1.10,2013-05-06 15:30:00,
2013-05-06 08:45:00,70.7,49.0,30.20,NNW,348,0.0,-999.0,47,-99.99,,,0.00,220,weatherlink.com 1.10,2013-05-06 15:45:00,
2013-05-06 09:00:00,71.1,50.0,30.20,NNW,348,1.0,-999.0,47,-99.99,,,0.00,218,weatherlink.com 1.10,2013-05-06 16:00:00,
2013-05-06 09:15:00,72.4,50.0,30.20,North,355,0.0,-999.0,45,-99.99,,,0.00,798,weatherlink.com 1.10,2013-05-06 16:15:00,
2013-05-06 09:30:00,74.2,50.0,30.20,East,99,1.0,-999.0,43,-99.99,,,0.00,668,weatherlink.com 1.10,2013-05-06 16:30:00,
2013-05-06 09:45:00,73.9,50.0,30.20,SE,139,0.0,-999.0,43,-99.99,,,0.00,675,weatherlink.com 1.10,2013-05-06 16:45:00,
2013-05-06 10:00:00,74.9,50.0,30.20,ESE,108,2.0,-999.0,41,-99.99,,,0.00,195,weatherlink.com 1.10,2013-05-06 17:00:00,
2013-05-06 10:15:00,74.6,51.0,30.20,ESE,103,4.0,-999.0,43,-99.99,,,0.00,390,weatherlink.com 1.10,2013-05-06 17:15:00,
2013-05-06 10:30:00,74.5,49.0,30.20,NNE,26,0.0,-999.0,41,-99.99,,,0.00,589,weatherlink.com 1.10,2013-05-06 17:30:00,
2013-05-06 10:45:00,74.9,48.0,30.20,NNE,20,0.0,-999.0,39,-99.99,,,0.00,719,weatherlink.com 1.10,2013-05-06 17:45:00,
2013-05-06 11:00:00,75.8,51.0,30.20,WNW,287,0.0,-999.0,42,-99.99,,,0.00,622,weatherlink.com 1.10,2013-05-06 18:00:00,
2013-05-06 11:06:00,-999.0,-99.9,0.00,North,-999,-999.0,-999.0,-999,-99.99,,,0.00,,weatherlink.com 1.10,2013-05-06 18:06:00,
2013-05-06 11:18:00,-999.0,-99.9,30.19,North,-999,-999.0,-999.0,-999,-99.99,,,0.00,,weatherlink.com 1.10,2013-05-06 18:18:00,
2013-05-06 11:33:00,77.0,49.0,30.19,WNW,302,0.0,-999.0,38,-99.99,,,0.00,265,weatherlink.com 1.10,2013-05-06 18:33:00,
2013-05-06 11:48:00,75.6,48.0,30.20,South,186,0.0,-999.0,38,-99.99,,,0.00,209,weatherlink.com 1.10,2013-05-06 18:48:00,
2013-05-06 12:03:00,75.3,50.0,30.20,South,188,0.0,-999.0,41,-99.99,,,0.00,230,weatherlink.com 1.10,2013-05-06 19:03:00,
2013-05-06 12:18:00,74.8,48.0,30.19,South,191,0.0,-999.0,39,-99.99,,,0.00,253,weatherlink.com 1.10,2013-05-06 19:18:00,
2013-05-06 12:33:00,76.9,51.0,30.19,WNW,300,6.0,-999.0,40,-99.99,,,0.00,510,weatherlink.com 1.10,2013-05-06 19:33:00,
2013-05-06 12:48:00,77.4,50.0,30.18,WNW,284,6.0,-999.0,38,-99.99,,,0.00,972,weatherlink.com 1.10,2013-05-06 19:48:00,
2013-05-06 13:03:00,77.4,48.0,30.18,NNW,345,6.0,-999.0,36,-99.99,,,0.00,969,weatherlink.com 1.10,2013-05-06 20:03:00,
2013-05-06 13:18:00,78.0,49.0,30.17,NNW,348,5.0,-999.0,36,-99.99,,,0.00,1009,weatherlink.com 1.10,2013-05-06 20:18:00,
2013-05-06 13:33:00,77.3,48.0,30.17,NNW,332,0.0,-999.0,36,-99.99,,,0.00,355,weatherlink.com 1.10,2013-05-06 20:33:00,
2013-05-06 13:48:00,77.1,47.0,30.17,North,360,0.0,-999.0,34,-99.99,,,0.00,341,weatherlink.com 1.10,2013-05-06 20:48:00,
2013-05-06 14:03:00,77.3,48.0,30.17,NW,309,0.0,-999.0,35,-99.99,,,0.00,246,weatherlink.com 1.10,2013-05-06 21:03:00,
2013-05-06 14:18:00,77.0,48.0,30.16,NW,307,2.0,-999.0,36,-99.99,,,0.00,156,weatherlink.com 1.10,2013-05-06 21:18:00,
2013-05-06 14:33:00,76.7,46.0,30.17,NW,309,0.0,-999.0,34,-99.99,,,0.00,348,weatherlink.com 1.10,2013-05-06 21:33:00,
2013-05-06 14:48:00,76.7,48.0,30.16,WNW,303,0.0,-999.0,36,-99.99,,,0.00,230,weatherlink.com 1.10,2013-05-06 21:48:00,
2013-05-06 15:03:00,76.4,48.0,30.16,WNW,283,0.0,-999.0,37,-99.99,,,0.00,230,weatherlink.com 1.10,2013-05-06 22:03:00,
2013-05-06 15:18:00,77.5,51.0,30.15,West,268,2.0,-999.0,40,-99.99,,,0.00,872,weatherlink.com 1.10,2013-05-06 22:18:00,
2013-05-06 15:33:00,77.9,50.0,30.14,SSW,198,0.0,-999.0,37,-99.99,,,0.00,728,weatherlink.com 1.10,2013-05-06 22:33:00,
2013-05-06 15:48:00,78.0,49.0,30.14,South,184,1.0,-999.0,36,-99.99,,,0.00,364,weatherlink.com 1.10,2013-05-06 22:48:00,
2013-05-06 16:03:00,77.5,49.0,30.14,WSW,257,0.0,-999.0,37,-99.99,,,0.00,285,weatherlink.com 1.10,2013-05-06 23:03:00,
2013-05-06 16:18:00,77.0,50.0,30.14,NW,326,0.0,-999.0,39,-99.99,,,0.00,109,weatherlink.com 1.10,2013-05-06 23:18:00,
2013-05-06 16:34:00,76.6,51.0,30.14,WNW,292,1.0,-999.0,41,-99.99,,,0.00,230,weatherlink.com 1.10,2013-05-06 23:34:00,
2013-05-06 16:49:00,76.5,50.0,30.14,NNW,344,7.0,-999.0,40,-99.99,,,0.00,497,weatherlink.com 1.10,2013-05-06 23:49:00,
2013-05-06 17:04:00,77.0,51.0,30.15,NNW,328,0.0,-999.0,40,-99.99,,,0.00,550,weatherlink.com 1.10,2013-05-07 00:04:00,
2013-05-06 17:19:00,75.5,49.0,30.16,West,267,10.0,-999.0,39,-99.99,,,0.00,450,weatherlink.com 1.10,2013-05-07 00:19:00,
2013-05-06 17:34:00,74.6,49.0,30.17,West,280,0.0,-999.0,40,-99.99,,,0.00,413,weatherlink.com 1.10,2013-05-07 00:34:00,
2013-05-06 17:49:00,73.9,47.0,30.16,WSW,240,1.0,-999.0,39,-99.99,,,0.00,336,weatherlink.com 1.10,2013-05-07 00:49:00,
2013-05-06 18:04:00,73.1,47.0,30.16,WNW,298,13.0,-999.0,39,-99.99,,,0.00,257,weatherlink.com 1.10,2013-05-07 01:04:00,
2013-05-06 18:19:00,73.4,46.0,30.16,West,261,3.0,-999.0,38,-99.99,,,0.00,214,weatherlink.com 1.10,2013-05-07 01:19:00,
2013-05-06 18:34:00,73.4,45.0,30.16,WNW,284,5.0,-999.0,36,-99.99,,,0.00,151,weatherlink.com 1.10,2013-05-07 01:34:00,
2013-05-06 18:49:00,72.3,43.0,30.17,WSW,241,3.0,-999.0,35,-99.99,,,0.00,86,weatherlink.com 1.10,2013-05-07 01:49:00,
2013-05-06 19:04:00,71.4,43.0,30.17,SW,215,6.0,-999.0,36,-99.99,,,0.00,26,weatherlink.com 1.10,2013-05-07 02:04:00,
2013-05-06 19:19:00,70.3,42.0,30.17,WNW,288,5.0,-999.0,36,-99.99,,,0.00,9,weatherlink.com 1.10,2013-05-07 02:19:00,
2013-05-06 19:34:00,69.8,42.0,30.18,WSW,257,5.0,-999.0,37,-99.99,,,0.00,0,weatherlink.com 1.10,2013-05-07 02:34:00,
2013-05-06 19:49:00,69.3,42.0,30.19,WNW,286,1.0,-999.0,38,-99.99,,,0.00,0,weatherlink.com 1.10,2013-05-07 02:49:00,
2013-05-06 20:04:00,68.8,43.0,30.19,WNW,286,8.0,-999.0,40,-99.99,,,0.00,0,weatherlink.com 1.10,2013-05-07 03:04:00,
2013-05-06 20:19:00,68.1,45.0,30.19,NW,307,0.0,-999.0,44,-99.99,,,0.00,0,weatherlink.com 1.10,2013-05-07 03:19:00,
2013-05-06 20:34:00,67.4,44.0,30.20,NW,313,4.0,-999.0,43,-99.99,,,0.00,0,weatherlink.com 1.10,2013-05-07 03:34:00,
2013-05-06 20:49:00,67.8,44.0,30.20,WNW,300,0.0,-999.0,42,-99.99,,,0.00,0,weatherlink.com 1.10,2013-05-07 03:49:00,
2013-05-06 21:04:00,67.1,44.0,30.21,North,355,1.0,-999.0,44,-99.99,,,0.00,0,weatherlink.com 1.10,2013-05-07 04:04:00,
2013-05-06 21:19:00,66.5,44.0,30.21,NNW,341,0.0,-999.0,44,-99.99,,,0.00,0,weatherlink.com 1.10,2013-05-07 04:19:00,
2013-05-06 21:34:00,66.2,44.0,30.22,NNW,341,0.0,-999.0,45,-99.99,,,0.00,0,weatherlink.com 1.10,2013-05-07 04:34:00,
2013-05-06 21:49:00,65.8,44.0,30.22,NNW,341,0.0,-999.0,45,-99.99,,,0.00,0,weatherlink.com 1.10,2013-05-07 04:49:00,
2013-05-06 22:04:00,65.1,43.0,30.22,NNW,341,0.0,-999.0,45,-99.99,,,0.00,0,weatherlink.com 1.10,2013-05-07 05:04:00,
2013-05-06 22:19:00,64.5,44.0,30.23,NNW,341,0.0,-999.0,47,-99.99,,,0.00,0,weatherlink.com 1.10,2013-05-07 05:19:00,
2013-05-06 22:34:00,64.0,42.0,30.23,NNW,341,0.0,-999.0,45,-99.99,,,0.00,0,weatherlink.com 1.10,2013-05-07 05:34:00,
2013-05-06 22:49:00,64.3,42.0,30.23,NNW,341,0.0,-999.0,44,-99.99,,,0.00,0,weatherlink.com 1.10,2013-05-07 05:49:00,
2013-05-06 23:04:00,63.9,41.0,30.23,NNW,341,0.0,-999.0,44,-99.99,,,0.00,0,weatherlink.com 1.10,2013-05-07 06:04:00,
2013-05-06 23:19:00,63.5,42.0,30.23,NNW,342,0.0,-999.0,45,-99.99,,,0.00,0,weatherlink.com 1.10,2013-05-07 06:19:00,
2013-05-06 23:34:00,63.2,42.0,30.23,NNW,342,0.0,-999.0,46,-99.99,,,0.00,0,weatherlink.com 1.10,2013-05-07 06:34:00,
2013-05-06 23:50:00,63.0,43.0,30.23,NNW,342,0.0,-999.0,48,-99.99,,,0.00,0,weatherlink.com 1.10,2013-05-07 06:50:00,